sensor_id;sensor_type;location;lat;lon;timestamp;P1;durP1;ratioP1;P2;durP2;ratioP2
21999;SDS011;11164;48.818;2.322;2023-07-31T00:01:51;8.52;;;2.40;;
21999;SDS011;11164;48.818;2.322;2023-07-31T00:04:16;7.28;;;2.25;;
21999;SDS011;11164;48.818;2.322;2023-07-31T00:06:42;7.70;;;2.22;;
21999;SDS011;11164;48.818;2.322;2023-07-31T00:09:07;6.30;;;2.20;;
21999;SDS011;11164;48.818;2.322;2023-07-31T00:11:32;8.15;;;2.47;;
21999;SDS011;11164;48.818;2.322;2023-07-31T00:13:58;8.13;;;2.20;;
21999;SDS011;11164;48.818;2.322;2023-07-31T00:16:23;8.10;;;2.28;;
21999;SDS011;11164;48.818;2.322;2023-07-31T00:18:48;9.02;;;2.67;;
21999;SDS011;11164;48.818;2.322;2023-07-31T00:21:14;4.63;;;2.20;;
21999;SDS011;11164;48.818;2.322;2023-07-31T00:23:40;8.30;;;2.42;;
21999;SDS011;11164;48.818;2.322;2023-07-31T00:26:06;8.02;;;2.38;;
21999;SDS011;11164;48.818;2.322;2023-07-31T00:28:31;6.35;;;2.17;;
21999;SDS011;11164;48.818;2.322;2023-07-31T00:30:56;7.15;;;2.30;;
21999;SDS011;11164;48.818;2.322;2023-07-31T00:33:21;6.53;;;2.60;;
21999;SDS011;11164;48.818;2.322;2023-07-31T00:35:48;6.93;;;2.63;;
21999;SDS011;11164;48.818;2.322;2023-07-31T00:38:13;6.30;;;2.50;;
21999;SDS011;11164;48.818;2.322;2023-07-31T00:40:39;6.38;;;2.22;;
21999;SDS011;11164;48.818;2.322;2023-07-31T00:43:04;8.00;;;2.22;;
21999;SDS011;11164;48.818;2.322;2023-07-31T00:45:29;7.00;;;2.58;;
21999;SDS011;11164;48.818;2.322;2023-07-31T00:47:55;7.25;;;2.28;;
21999;SDS011;11164;48.818;2.322;2023-07-31T00:50:22;6.43;;;2.60;;
21999;SDS011;11164;48.818;2.322;2023-07-31T00:52:49;7.30;;;2.58;;
21999;SDS011;11164;48.818;2.322;2023-07-31T00:55:14;6.03;;;2.10;;
21999;SDS011;11164;48.818;2.322;2023-07-31T00:57:40;7.57;;;2.53;;
21999;SDS011;11164;48.818;2.322;2023-07-31T01:00:06;6.65;;;2.38;;
21999;SDS011;11164;48.818;2.322;2023-07-31T01:02:32;5.90;;;2.70;;
21999;SDS011;11164;48.818;2.322;2023-07-31T01:04:58;7.38;;;2.28;;
21999;SDS011;11164;48.818;2.322;2023-07-31T01:10:21;6.13;;;2.20;;
21999;SDS011;11164;48.818;2.322;2023-07-31T01:12:51;7.70;;;2.80;;
21999;SDS011;11164;48.818;2.322;2023-07-31T01:15:17;6.88;;;2.30;;
21999;SDS011;11164;48.818;2.322;2023-07-31T01:17:43;7.50;;;2.95;;
21999;SDS011;11164;48.818;2.322;2023-07-31T01:20:12;7.00;;;2.40;;
21999;SDS011;11164;48.818;2.322;2023-07-31T01:28:25;8.48;;;2.28;;
21999;SDS011;11164;48.818;2.322;2023-07-31T01:30:58;7.38;;;2.05;;
21999;SDS011;11164;48.818;2.322;2023-07-31T01:33:25;7.50;;;2.33;;
21999;SDS011;11164;48.818;2.322;2023-07-31T01:35:50;6.80;;;2.10;;
21999;SDS011;11164;48.818;2.322;2023-07-31T01:38:20;8.35;;;2.63;;
21999;SDS011;11164;48.818;2.322;2023-07-31T01:40:48;7.13;;;2.40;;
21999;SDS011;11164;48.818;2.322;2023-07-31T01:43:16;6.55;;;1.92;;
21999;SDS011;11164;48.818;2.322;2023-07-31T01:45:41;6.75;;;2.38;;
21999;SDS011;11164;48.818;2.322;2023-07-31T01:48:06;6.75;;;2.60;;
21999;SDS011;11164;48.818;2.322;2023-07-31T01:50:32;6.72;;;2.00;;
21999;SDS011;11164;48.818;2.322;2023-07-31T01:52:57;7.95;;;2.60;;
21999;SDS011;11164;48.818;2.322;2023-07-31T01:55:22;6.65;;;1.92;;
21999;SDS011;11164;48.818;2.322;2023-07-31T01:57:47;5.75;;;1.85;;
21999;SDS011;11164;48.818;2.322;2023-07-31T02:00:13;8.05;;;2.38;;
21999;SDS011;11164;48.818;2.322;2023-07-31T02:02:38;8.10;;;2.22;;
21999;SDS011;11164;48.818;2.322;2023-07-31T02:05:04;8.02;;;2.30;;
21999;SDS011;11164;48.818;2.322;2023-07-31T02:07:30;8.82;;;1.90;;
21999;SDS011;11164;48.818;2.322;2023-07-31T02:09:55;6.85;;;2.20;;
21999;SDS011;11164;48.818;2.322;2023-07-31T02:12:21;4.80;;;1.92;;
21999;SDS011;11164;48.818;2.322;2023-07-31T02:14:46;6.82;;;2.22;;
21999;SDS011;11164;48.818;2.322;2023-07-31T02:17:11;5.15;;;1.92;;
21999;SDS011;11164;48.818;2.322;2023-07-31T02:19:36;5.88;;;2.20;;
21999;SDS011;11164;48.818;2.322;2023-07-31T02:22:02;9.27;;;2.17;;
21999;SDS011;11164;48.818;2.322;2023-07-31T02:24:27;7.40;;;2.13;;
21999;SDS011;11164;48.818;2.322;2023-07-31T02:26:53;5.85;;;2.17;;
21999;SDS011;11164;48.818;2.322;2023-07-31T02:29:18;5.45;;;1.75;;
21999;SDS011;11164;48.818;2.322;2023-07-31T02:31:43;5.68;;;1.73;;
21999;SDS011;11164;48.818;2.322;2023-07-31T02:34:09;8.93;;;2.10;;
21999;SDS011;11164;48.818;2.322;2023-07-31T02:36:34;7.75;;;2.15;;
21999;SDS011;11164;48.818;2.322;2023-07-31T02:38:59;5.07;;;1.90;;
21999;SDS011;11164;48.818;2.322;2023-07-31T02:41:25;6.75;;;2.20;;
21999;SDS011;11164;48.818;2.322;2023-07-31T02:43:50;6.47;;;2.22;;
21999;SDS011;11164;48.818;2.322;2023-07-31T02:46:15;4.70;;;1.90;;
21999;SDS011;11164;48.818;2.322;2023-07-31T02:48:41;7.05;;;2.30;;
21999;SDS011;11164;48.818;2.322;2023-07-31T02:51:06;5.53;;;1.83;;
21999;SDS011;11164;48.818;2.322;2023-07-31T02:53:31;4.18;;;1.67;;
21999;SDS011;11164;48.818;2.322;2023-07-31T02:55:57;7.65;;;1.80;;
21999;SDS011;11164;48.818;2.322;2023-07-31T02:58:22;4.63;;;2.10;;
21999;SDS011;11164;48.818;2.322;2023-07-31T03:00:47;7.05;;;1.90;;
21999;SDS011;11164;48.818;2.322;2023-07-31T03:03:12;7.32;;;2.05;;
21999;SDS011;11164;48.818;2.322;2023-07-31T03:05:38;4.45;;;1.98;;
21999;SDS011;11164;48.818;2.322;2023-07-31T03:08:03;5.18;;;1.70;;
21999;SDS011;11164;48.818;2.322;2023-07-31T03:10:29;5.72;;;2.00;;
21999;SDS011;11164;48.818;2.322;2023-07-31T03:12:54;4.00;;;1.92;;
21999;SDS011;11164;48.818;2.322;2023-07-31T03:15:19;5.82;;;1.80;;
21999;SDS011;11164;48.818;2.322;2023-07-31T03:17:44;4.35;;;1.85;;
21999;SDS011;11164;48.818;2.322;2023-07-31T03:20:10;6.45;;;2.08;;
21999;SDS011;11164;48.818;2.322;2023-07-31T03:22:36;10.55;;;2.25;;
21999;SDS011;11164;48.818;2.322;2023-07-31T03:25:02;6.95;;;2.17;;
21999;SDS011;11164;48.818;2.322;2023-07-31T03:27:27;6.70;;;1.88;;
21999;SDS011;11164;48.818;2.322;2023-07-31T03:29:53;6.80;;;2.08;;
21999;SDS011;11164;48.818;2.322;2023-07-31T03:32:18;5.63;;;2.22;;
21999;SDS011;11164;48.818;2.322;2023-07-31T03:34:45;6.70;;;2.00;;
21999;SDS011;11164;48.818;2.322;2023-07-31T03:37:10;7.20;;;1.83;;
21999;SDS011;11164;48.818;2.322;2023-07-31T03:39:35;5.57;;;1.88;;
21999;SDS011;11164;48.818;2.322;2023-07-31T03:42:01;8.18;;;2.10;;
21999;SDS011;11164;48.818;2.322;2023-07-31T03:44:26;6.45;;;1.80;;
21999;SDS011;11164;48.818;2.322;2023-07-31T03:46:51;4.78;;;1.95;;
21999;SDS011;11164;48.818;2.322;2023-07-31T03:49:17;5.15;;;2.03;;
21999;SDS011;11164;48.818;2.322;2023-07-31T03:51:42;6.38;;;2.08;;
21999;SDS011;11164;48.818;2.322;2023-07-31T03:54:09;6.85;;;2.00;;
21999;SDS011;11164;48.818;2.322;2023-07-31T03:56:35;7.18;;;1.83;;
21999;SDS011;11164;48.818;2.322;2023-07-31T03:59:00;4.40;;;2.00;;
21999;SDS011;11164;48.818;2.322;2023-07-31T04:01:25;6.55;;;1.73;;
21999;SDS011;11164;48.818;2.322;2023-07-31T04:03:51;4.57;;;1.70;;
21999;SDS011;11164;48.818;2.322;2023-07-31T04:06:16;6.30;;;2.10;;
21999;SDS011;11164;48.818;2.322;2023-07-31T04:08:44;5.03;;;1.90;;
21999;SDS011;11164;48.818;2.322;2023-07-31T04:11:12;5.18;;;1.90;;
21999;SDS011;11164;48.818;2.322;2023-07-31T04:13:38;6.60;;;1.90;;
21999;SDS011;11164;48.818;2.322;2023-07-31T04:16:04;6.20;;;2.00;;
21999;SDS011;11164;48.818;2.322;2023-07-31T04:18:29;4.88;;;1.63;;
21999;SDS011;11164;48.818;2.322;2023-07-31T04:20:56;7.78;;;2.60;;
21999;SDS011;11164;48.818;2.322;2023-07-31T04:23:23;5.72;;;2.05;;
21999;SDS011;11164;48.818;2.322;2023-07-31T04:25:48;5.97;;;1.80;;
21999;SDS011;11164;48.818;2.322;2023-07-31T04:28:14;6.30;;;2.33;;
21999;SDS011;11164;48.818;2.322;2023-07-31T04:30:39;8.25;;;1.98;;
21999;SDS011;11164;48.818;2.322;2023-07-31T04:33:04;8.13;;;2.70;;
21999;SDS011;11164;48.818;2.322;2023-07-31T04:35:30;6.90;;;2.17;;
21999;SDS011;11164;48.818;2.322;2023-07-31T04:37:55;7.40;;;1.98;;
21999;SDS011;11164;48.818;2.322;2023-07-31T04:40:20;6.43;;;2.10;;
21999;SDS011;11164;48.818;2.322;2023-07-31T04:42:46;8.93;;;2.22;;
21999;SDS011;11164;48.818;2.322;2023-07-31T04:45:12;6.63;;;1.90;;
21999;SDS011;11164;48.818;2.322;2023-07-31T04:47:37;6.35;;;2.08;;
21999;SDS011;11164;48.818;2.322;2023-07-31T04:50:02;6.30;;;2.50;;
21999;SDS011;11164;48.818;2.322;2023-07-31T04:52:28;7.82;;;2.47;;
21999;SDS011;11164;48.818;2.322;2023-07-31T04:54:53;9.05;;;2.70;;
21999;SDS011;11164;48.818;2.322;2023-07-31T04:57:18;5.88;;;2.50;;
21999;SDS011;11164;48.818;2.322;2023-07-31T04:59:43;6.95;;;2.35;;
21999;SDS011;11164;48.818;2.322;2023-07-31T05:02:09;9.38;;;2.55;;
21999;SDS011;11164;48.818;2.322;2023-07-31T05:04:37;7.55;;;2.70;;
21999;SDS011;11164;48.818;2.322;2023-07-31T05:07:02;6.55;;;2.70;;
21999;SDS011;11164;48.818;2.322;2023-07-31T05:09:27;8.63;;;2.55;;
21999;SDS011;11164;48.818;2.322;2023-07-31T05:11:53;9.05;;;2.83;;
21999;SDS011;11164;48.818;2.322;2023-07-31T05:14:18;6.72;;;2.92;;
21999;SDS011;11164;48.818;2.322;2023-07-31T05:16:45;7.78;;;2.83;;
21999;SDS011;11164;48.818;2.322;2023-07-31T05:19:10;8.95;;;2.60;;
21999;SDS011;11164;48.818;2.322;2023-07-31T05:21:36;7.30;;;2.78;;
21999;SDS011;11164;48.818;2.322;2023-07-31T05:24:01;11.98;;;2.80;;
21999;SDS011;11164;48.818;2.322;2023-07-31T05:26:26;7.85;;;2.95;;
21999;SDS011;11164;48.818;2.322;2023-07-31T05:28:52;7.65;;;2.80;;
21999;SDS011;11164;48.818;2.322;2023-07-31T05:31:17;8.50;;;2.67;;
21999;SDS011;11164;48.818;2.322;2023-07-31T05:33:42;9.05;;;3.20;;
21999;SDS011;11164;48.818;2.322;2023-07-31T05:36:08;11.40;;;3.28;;
21999;SDS011;11164;48.818;2.322;2023-07-31T05:38:33;8.82;;;3.45;;
21999;SDS011;11164;48.818;2.322;2023-07-31T05:40:59;10.57;;;3.65;;
21999;SDS011;11164;48.818;2.322;2023-07-31T05:43:24;15.38;;;3.80;;
21999;SDS011;11164;48.818;2.322;2023-07-31T05:45:50;8.88;;;3.00;;
21999;SDS011;11164;48.818;2.322;2023-07-31T05:48:16;11.55;;;3.83;;
21999;SDS011;11164;48.818;2.322;2023-07-31T05:50:42;12.57;;;3.90;;
21999;SDS011;11164;48.818;2.322;2023-07-31T05:53:08;10.73;;;3.47;;
21999;SDS011;11164;48.818;2.322;2023-07-31T05:55:33;12.05;;;4.22;;
21999;SDS011;11164;48.818;2.322;2023-07-31T05:57:59;11.73;;;3.70;;
21999;SDS011;11164;48.818;2.322;2023-07-31T06:00:24;10.55;;;3.70;;
21999;SDS011;11164;48.818;2.322;2023-07-31T06:02:49;13.10;;;3.70;;
21999;SDS011;11164;48.818;2.322;2023-07-31T06:05:15;14.68;;;4.35;;
21999;SDS011;11164;48.818;2.322;2023-07-31T06:07:40;12.30;;;4.07;;
21999;SDS011;11164;48.818;2.322;2023-07-31T06:10:06;11.05;;;3.78;;
21999;SDS011;11164;48.818;2.322;2023-07-31T06:12:33;10.13;;;3.75;;
21999;SDS011;11164;48.818;2.322;2023-07-31T06:14:59;9.27;;;3.53;;
21999;SDS011;11164;48.818;2.322;2023-07-31T06:17:24;10.80;;;3.60;;
21999;SDS011;11164;48.818;2.322;2023-07-31T06:19:51;10.85;;;3.97;;
21999;SDS011;11164;48.818;2.322;2023-07-31T06:22:16;13.65;;;3.97;;
21999;SDS011;11164;48.818;2.322;2023-07-31T06:24:42;7.10;;;3.63;;
21999;SDS011;11164;48.818;2.322;2023-07-31T06:27:07;10.07;;;3.80;;
21999;SDS011;11164;48.818;2.322;2023-07-31T06:29:33;11.95;;;3.60;;
21999;SDS011;11164;48.818;2.322;2023-07-31T06:31:58;10.60;;;3.67;;
21999;SDS011;11164;48.818;2.322;2023-07-31T06:34:24;12.98;;;3.90;;
21999;SDS011;11164;48.818;2.322;2023-07-31T06:36:49;12.40;;;3.83;;
21999;SDS011;11164;48.818;2.322;2023-07-31T06:39:14;15.00;;;4.15;;
21999;SDS011;11164;48.818;2.322;2023-07-31T06:41:39;10.13;;;3.60;;
21999;SDS011;11164;48.818;2.322;2023-07-31T06:44:05;15.45;;;4.72;;
21999;SDS011;11164;48.818;2.322;2023-07-31T06:46:30;16.00;;;4.25;;
21999;SDS011;11164;48.818;2.322;2023-07-31T06:48:56;12.50;;;4.05;;
21999;SDS011;11164;48.818;2.322;2023-07-31T06:51:21;12.57;;;4.53;;
21999;SDS011;11164;48.818;2.322;2023-07-31T06:53:46;11.50;;;3.85;;
21999;SDS011;11164;48.818;2.322;2023-07-31T06:56:12;9.20;;;3.95;;
21999;SDS011;11164;48.818;2.322;2023-07-31T06:58:37;10.52;;;4.15;;
21999;SDS011;11164;48.818;2.322;2023-07-31T07:01:03;14.40;;;3.85;;
21999;SDS011;11164;48.818;2.322;2023-07-31T07:03:29;12.68;;;4.47;;
21999;SDS011;11164;48.818;2.322;2023-07-31T07:05:54;11.63;;;4.25;;
21999;SDS011;11164;48.818;2.322;2023-07-31T07:08:20;10.30;;;4.30;;
21999;SDS011;11164;48.818;2.322;2023-07-31T07:10:45;12.38;;;4.03;;
21999;SDS011;11164;48.818;2.322;2023-07-31T07:13:11;13.52;;;4.43;;
21999;SDS011;11164;48.818;2.322;2023-07-31T07:15:37;12.23;;;3.92;;
21999;SDS011;11164;48.818;2.322;2023-07-31T07:18:03;11.68;;;4.03;;
21999;SDS011;11164;48.818;2.322;2023-07-31T07:20:28;10.55;;;3.92;;
21999;SDS011;11164;48.818;2.322;2023-07-31T07:22:54;11.35;;;3.63;;
21999;SDS011;11164;48.818;2.322;2023-07-31T07:25:19;12.57;;;3.88;;
21999;SDS011;11164;48.818;2.322;2023-07-31T07:27:44;10.65;;;3.50;;
21999;SDS011;11164;48.818;2.322;2023-07-31T07:30:10;12.75;;;3.60;;
21999;SDS011;11164;48.818;2.322;2023-07-31T07:32:35;12.77;;;4.40;;
21999;SDS011;11164;48.818;2.322;2023-07-31T07:35:00;13.57;;;4.68;;
21999;SDS011;11164;48.818;2.322;2023-07-31T07:37:26;11.63;;;3.92;;
21999;SDS011;11164;48.818;2.322;2023-07-31T07:39:51;14.73;;;4.63;;
21999;SDS011;11164;48.818;2.322;2023-07-31T07:42:17;12.55;;;4.10;;
21999;SDS011;11164;48.818;2.322;2023-07-31T07:44:43;9.68;;;3.45;;
21999;SDS011;11164;48.818;2.322;2023-07-31T07:47:08;12.05;;;4.30;;
21999;SDS011;11164;48.818;2.322;2023-07-31T07:49:34;14.07;;;4.18;;
21999;SDS011;11164;48.818;2.322;2023-07-31T07:52:00;9.15;;;3.38;;
21999;SDS011;11164;48.818;2.322;2023-07-31T07:54:26;10.32;;;3.97;;
21999;SDS011;11164;48.818;2.322;2023-07-31T07:56:51;10.73;;;3.92;;
21999;SDS011;11164;48.818;2.322;2023-07-31T07:59:16;12.43;;;4.03;;
21999;SDS011;11164;48.818;2.322;2023-07-31T08:01:42;11.23;;;3.92;;
21999;SDS011;11164;48.818;2.322;2023-07-31T08:04:08;9.57;;;3.72;;
21999;SDS011;11164;48.818;2.322;2023-07-31T08:06:33;11.45;;;4.00;;
21999;SDS011;11164;48.818;2.322;2023-07-31T08:08:59;11.32;;;3.92;;
21999;SDS011;11164;48.818;2.322;2023-07-31T08:11:24;9.15;;;3.17;;
21999;SDS011;11164;48.818;2.322;2023-07-31T08:13:49;10.32;;;3.67;;
21999;SDS011;11164;48.818;2.322;2023-07-31T08:16:15;9.43;;;3.30;;
21999;SDS011;11164;48.818;2.322;2023-07-31T08:18:40;13.00;;;3.80;;
21999;SDS011;11164;48.818;2.322;2023-07-31T08:21:07;9.15;;;3.50;;
21999;SDS011;11164;48.818;2.322;2023-07-31T08:23:33;11.38;;;3.35;;
21999;SDS011;11164;48.818;2.322;2023-07-31T08:25:58;7.88;;;3.08;;
21999;SDS011;11164;48.818;2.322;2023-07-31T08:28:24;12.60;;;3.75;;
21999;SDS011;11164;48.818;2.322;2023-07-31T08:30:50;12.80;;;3.53;;
21999;SDS011;11164;48.818;2.322;2023-07-31T08:33:16;10.93;;;3.78;;
21999;SDS011;11164;48.818;2.322;2023-07-31T08:35:41;14.55;;;4.00;;
21999;SDS011;11164;48.818;2.322;2023-07-31T08:38:07;8.82;;;3.15;;
21999;SDS011;11164;48.818;2.322;2023-07-31T08:40:35;9.15;;;3.50;;
21999;SDS011;11164;48.818;2.322;2023-07-31T08:43:01;8.25;;;3.15;;
21999;SDS011;11164;48.818;2.322;2023-07-31T08:45:27;9.73;;;3.40;;
21999;SDS011;11164;48.818;2.322;2023-07-31T08:47:54;8.57;;;3.15;;
21999;SDS011;11164;48.818;2.322;2023-07-31T08:50:21;13.70;;;3.65;;
21999;SDS011;11164;48.818;2.322;2023-07-31T08:52:47;12.85;;;3.83;;
21999;SDS011;11164;48.818;2.322;2023-07-31T08:55:14;9.73;;;3.47;;
21999;SDS011;11164;48.818;2.322;2023-07-31T08:57:39;8.85;;;3.58;;
21999;SDS011;11164;48.818;2.322;2023-07-31T09:00:07;9.00;;;3.42;;
21999;SDS011;11164;48.818;2.322;2023-07-31T09:02:46;10.10;;;3.53;;
21999;SDS011;11164;48.818;2.322;2023-07-31T09:05:17;8.23;;;3.22;;
21999;SDS011;11164;48.818;2.322;2023-07-31T09:07:43;11.20;;;3.53;;
21999;SDS011;11164;48.818;2.322;2023-07-31T09:10:12;12.20;;;3.85;;
21999;SDS011;11164;48.818;2.322;2023-07-31T09:12:37;8.57;;;3.60;;
21999;SDS011;11164;48.818;2.322;2023-07-31T09:15:04;8.13;;;3.50;;
21999;SDS011;11164;48.818;2.322;2023-07-31T09:17:34;9.27;;;2.78;;
21999;SDS011;11164;48.818;2.322;2023-07-31T09:20:17;7.68;;;3.00;;
21999;SDS011;11164;48.818;2.322;2023-07-31T09:22:44;10.07;;;3.65;;
21999;SDS011;11164;48.818;2.322;2023-07-31T09:25:20;8.52;;;3.35;;
21999;SDS011;11164;48.818;2.322;2023-07-31T09:27:50;9.02;;;3.33;;
21999;SDS011;11164;48.818;2.322;2023-07-31T09:30:20;9.00;;;3.30;;
21999;SDS011;11164;48.818;2.322;2023-07-31T09:32:47;9.50;;;3.30;;
21999;SDS011;11164;48.818;2.322;2023-07-31T09:37:53;9.63;;;3.53;;
21999;SDS011;11164;48.818;2.322;2023-07-31T09:40:26;10.30;;;3.63;;
21999;SDS011;11164;48.818;2.322;2023-07-31T09:42:54;11.15;;;3.40;;
21999;SDS011;11164;48.818;2.322;2023-07-31T09:45:22;8.43;;;3.83;;
21999;SDS011;11164;48.818;2.322;2023-07-31T09:47:48;6.90;;;3.10;;
21999;SDS011;11164;48.818;2.322;2023-07-31T09:50:14;10.70;;;3.58;;
21999;SDS011;11164;48.818;2.322;2023-07-31T09:52:41;8.40;;;3.60;;
21999;SDS011;11164;48.818;2.322;2023-07-31T09:55:06;13.60;;;4.72;;
21999;SDS011;11164;48.818;2.322;2023-07-31T09:57:33;10.15;;;4.00;;
21999;SDS011;11164;48.818;2.322;2023-07-31T09:59:59;9.63;;;3.90;;
21999;SDS011;11164;48.818;2.322;2023-07-31T10:02:25;11.57;;;3.63;;
21999;SDS011;11164;48.818;2.322;2023-07-31T10:04:52;8.45;;;3.58;;
21999;SDS011;11164;48.818;2.322;2023-07-31T10:07:25;10.25;;;3.40;;
21999;SDS011;11164;48.818;2.322;2023-07-31T10:09:53;8.38;;;4.35;;
21999;SDS011;11164;48.818;2.322;2023-07-31T10:12:20;9.35;;;3.08;;
21999;SDS011;11164;48.818;2.322;2023-07-31T10:14:50;8.40;;;4.25;;
21999;SDS011;11164;48.818;2.322;2023-07-31T10:17:18;10.65;;;3.90;;
21999;SDS011;11164;48.818;2.322;2023-07-31T10:19:46;8.80;;;3.78;;
21999;SDS011;11164;48.818;2.322;2023-07-31T10:22:12;7.90;;;3.33;;
21999;SDS011;11164;48.818;2.322;2023-07-31T10:24:39;11.20;;;3.97;;
21999;SDS011;11164;48.818;2.322;2023-07-31T10:27:04;11.38;;;4.15;;
21999;SDS011;11164;48.818;2.322;2023-07-31T10:29:31;11.20;;;3.90;;
21999;SDS011;11164;48.818;2.322;2023-07-31T10:31:57;11.77;;;4.40;;
21999;SDS011;11164;48.818;2.322;2023-07-31T10:34:23;9.70;;;4.03;;
21999;SDS011;11164;48.818;2.322;2023-07-31T10:36:49;8.27;;;3.45;;
21999;SDS011;11164;48.818;2.322;2023-07-31T10:39:34;9.25;;;3.70;;
21999;SDS011;11164;48.818;2.322;2023-07-31T10:42:13;11.27;;;4.65;;
21999;SDS011;11164;48.818;2.322;2023-07-31T10:44:43;10.02;;;4.15;;
21999;SDS011;11164;48.818;2.322;2023-07-31T10:47:10;7.45;;;3.50;;
21999;SDS011;11164;48.818;2.322;2023-07-31T10:49:39;9.20;;;4.22;;
21999;SDS011;11164;48.818;2.322;2023-07-31T10:52:04;8.30;;;3.40;;
21999;SDS011;11164;48.818;2.322;2023-07-31T10:54:29;8.63;;;3.60;;
21999;SDS011;11164;48.818;2.322;2023-07-31T10:56:55;7.60;;;3.45;;
21999;SDS011;11164;48.818;2.322;2023-07-31T10:59:26;11.07;;;3.75;;
21999;SDS011;11164;48.818;2.322;2023-07-31T11:01:53;7.72;;;3.60;;
21999;SDS011;11164;48.818;2.322;2023-07-31T11:04:23;10.07;;;4.00;;
21999;SDS011;11164;48.818;2.322;2023-07-31T11:06:59;9.60;;;4.38;;
21999;SDS011;11164;48.818;2.322;2023-07-31T11:09:30;9.02;;;3.85;;
21999;SDS011;11164;48.818;2.322;2023-07-31T11:11:57;9.70;;;3.97;;
21999;SDS011;11164;48.818;2.322;2023-07-31T11:14:23;10.60;;;4.78;;
21999;SDS011;11164;48.818;2.322;2023-07-31T11:16:51;9.48;;;4.30;;
21999;SDS011;11164;48.818;2.322;2023-07-31T11:19:23;10.85;;;5.10;;
21999;SDS011;11164;48.818;2.322;2023-07-31T11:21:50;11.48;;;5.47;;
21999;SDS011;11164;48.818;2.322;2023-07-31T11:24:17;13.18;;;5.95;;
21999;SDS011;11164;48.818;2.322;2023-07-31T11:26:52;13.18;;;5.55;;
21999;SDS011;11164;48.818;2.322;2023-07-31T11:29:18;11.80;;;4.65;;
21999;SDS011;11164;48.818;2.322;2023-07-31T11:31:44;10.55;;;4.97;;
21999;SDS011;11164;48.818;2.322;2023-07-31T11:34:11;14.52;;;5.28;;
21999;SDS011;11164;48.818;2.322;2023-07-31T11:36:37;11.43;;;4.80;;
21999;SDS011;11164;48.818;2.322;2023-07-31T11:39:09;11.55;;;4.68;;
21999;SDS011;11164;48.818;2.322;2023-07-31T11:41:34;12.95;;;4.40;;
21999;SDS011;11164;48.818;2.322;2023-07-31T11:44:00;13.05;;;5.07;;
21999;SDS011;11164;48.818;2.322;2023-07-31T11:46:26;9.45;;;4.45;;
21999;SDS011;11164;48.818;2.322;2023-07-31T11:48:51;10.57;;;4.10;;
21999;SDS011;11164;48.818;2.322;2023-07-31T11:51:17;8.82;;;4.70;;
21999;SDS011;11164;48.818;2.322;2023-07-31T11:53:50;9.73;;;4.47;;
21999;SDS011;11164;48.818;2.322;2023-07-31T11:56:17;10.25;;;3.88;;
21999;SDS011;11164;48.818;2.322;2023-07-31T11:58:45;8.93;;;4.22;;
21999;SDS011;11164;48.818;2.322;2023-07-31T12:01:12;10.40;;;4.15;;
21999;SDS011;11164;48.818;2.322;2023-07-31T12:03:40;8.27;;;4.10;;
21999;SDS011;11164;48.818;2.322;2023-07-31T12:06:07;12.25;;;4.00;;
21999;SDS011;11164;48.818;2.322;2023-07-31T12:08:33;11.85;;;4.90;;
21999;SDS011;11164;48.818;2.322;2023-07-31T12:11:02;15.35;;;4.82;;
21999;SDS011;11164;48.818;2.322;2023-07-31T12:13:30;11.65;;;4.53;;
21999;SDS011;11164;48.818;2.322;2023-07-31T12:15:57;10.10;;;3.65;;
21999;SDS011;11164;48.818;2.322;2023-07-31T12:18:24;9.80;;;3.55;;
21999;SDS011;11164;48.818;2.322;2023-07-31T12:20:55;9.43;;;3.90;;
21999;SDS011;11164;48.818;2.322;2023-07-31T12:23:22;8.88;;;3.85;;
21999;SDS011;11164;48.818;2.322;2023-07-31T12:31:11;7.63;;;4.15;;
21999;SDS011;11164;48.818;2.322;2023-07-31T12:33:38;9.77;;;4.03;;
21999;SDS011;11164;48.818;2.322;2023-07-31T12:36:06;9.05;;;3.55;;
21999;SDS011;11164;48.818;2.322;2023-07-31T12:38:33;7.40;;;4.10;;
21999;SDS011;11164;48.818;2.322;2023-07-31T12:40:59;10.63;;;5.00;;
21999;SDS011;11164;48.818;2.322;2023-07-31T12:43:24;9.98;;;4.50;;
21999;SDS011;11164;48.818;2.322;2023-07-31T12:45:50;11.38;;;3.97;;
21999;SDS011;11164;48.818;2.322;2023-07-31T12:48:15;7.55;;;3.88;;
21999;SDS011;11164;48.818;2.322;2023-07-31T12:50:40;10.90;;;4.50;;
21999;SDS011;11164;48.818;2.322;2023-07-31T12:53:06;8.25;;;4.13;;
21999;SDS011;11164;48.818;2.322;2023-07-31T12:55:32;9.68;;;4.03;;
21999;SDS011;11164;48.818;2.322;2023-07-31T12:57:59;8.57;;;4.30;;
21999;SDS011;11164;48.818;2.322;2023-07-31T13:00:25;10.30;;;3.40;;
21999;SDS011;11164;48.818;2.322;2023-07-31T13:02:51;10.23;;;3.67;;
21999;SDS011;11164;48.818;2.322;2023-07-31T13:05:16;8.52;;;3.88;;
21999;SDS011;11164;48.818;2.322;2023-07-31T13:07:42;9.68;;;3.63;;
21999;SDS011;11164;48.818;2.322;2023-07-31T13:10:07;10.80;;;3.95;;
21999;SDS011;11164;48.818;2.322;2023-07-31T13:12:33;8.02;;;3.33;;
21999;SDS011;11164;48.818;2.322;2023-07-31T13:14:59;9.15;;;4.05;;
21999;SDS011;11164;48.818;2.322;2023-07-31T13:17:24;10.02;;;4.03;;
21999;SDS011;11164;48.818;2.322;2023-07-31T13:19:50;10.25;;;3.60;;
21999;SDS011;11164;48.818;2.322;2023-07-31T13:22:15;8.30;;;3.85;;
21999;SDS011;11164;48.818;2.322;2023-07-31T13:24:40;9.48;;;3.65;;
21999;SDS011;11164;48.818;2.322;2023-07-31T13:27:06;8.90;;;3.42;;
21999;SDS011;11164;48.818;2.322;2023-07-31T13:29:31;8.02;;;3.22;;
21999;SDS011;11164;48.818;2.322;2023-07-31T13:31:57;8.07;;;3.33;;
21999;SDS011;11164;48.818;2.322;2023-07-31T13:34:23;9.10;;;3.55;;
21999;SDS011;11164;48.818;2.322;2023-07-31T13:36:48;7.43;;;3.30;;
21999;SDS011;11164;48.818;2.322;2023-07-31T13:39:13;7.72;;;3.08;;
21999;SDS011;11164;48.818;2.322;2023-07-31T13:41:39;7.13;;;3.27;;
21999;SDS011;11164;48.818;2.322;2023-07-31T13:44:04;6.78;;;3.28;;
21999;SDS011;11164;48.818;2.322;2023-07-31T13:46:29;9.52;;;3.38;;
21999;SDS011;11164;48.818;2.322;2023-07-31T13:48:55;10.15;;;3.47;;
21999;SDS011;11164;48.818;2.322;2023-07-31T13:51:21;9.23;;;2.67;;
21999;SDS011;11164;48.818;2.322;2023-07-31T13:53:47;5.10;;;2.53;;
21999;SDS011;11164;48.818;2.322;2023-07-31T13:56:12;7.82;;;3.05;;
21999;SDS011;11164;48.818;2.322;2023-07-31T13:58:38;8.15;;;2.78;;
21999;SDS011;11164;48.818;2.322;2023-07-31T14:01:03;6.68;;;2.83;;
21999;SDS011;11164;48.818;2.322;2023-07-31T14:03:29;7.65;;;3.22;;
21999;SDS011;11164;48.818;2.322;2023-07-31T14:05:54;6.32;;;2.38;;
21999;SDS011;11164;48.818;2.322;2023-07-31T14:08:21;7.20;;;2.90;;
21999;SDS011;11164;48.818;2.322;2023-07-31T14:10:47;8.48;;;2.53;;
21999;SDS011;11164;48.818;2.322;2023-07-31T14:13:12;8.80;;;2.80;;
21999;SDS011;11164;48.818;2.322;2023-07-31T14:15:38;7.60;;;2.63;;
21999;SDS011;11164;48.818;2.322;2023-07-31T14:18:04;7.07;;;2.65;;
21999;SDS011;11164;48.818;2.322;2023-07-31T14:20:29;6.47;;;2.60;;
21999;SDS011;11164;48.818;2.322;2023-07-31T14:22:55;6.63;;;2.38;;
21999;SDS011;11164;48.818;2.322;2023-07-31T14:25:20;8.13;;;2.80;;
21999;SDS011;11164;48.818;2.322;2023-07-31T14:27:46;7.93;;;2.95;;
21999;SDS011;11164;48.818;2.322;2023-07-31T14:30:11;7.43;;;2.93;;
21999;SDS011;11164;48.818;2.322;2023-07-31T14:32:36;6.22;;;3.00;;
21999;SDS011;11164;48.818;2.322;2023-07-31T14:35:02;8.68;;;3.22;;
21999;SDS011;11164;48.818;2.322;2023-07-31T14:37:35;7.30;;;3.03;;
21999;SDS011;11164;48.818;2.322;2023-07-31T14:40:01;6.63;;;2.72;;
21999;SDS011;11164;48.818;2.322;2023-07-31T14:42:27;8.68;;;2.60;;
21999;SDS011;11164;48.818;2.322;2023-07-31T14:44:52;8.27;;;3.08;;
21999;SDS011;11164;48.818;2.322;2023-07-31T14:47:17;8.70;;;3.45;;
21999;SDS011;11164;48.818;2.322;2023-07-31T14:49:43;7.47;;;3.20;;
21999;SDS011;11164;48.818;2.322;2023-07-31T14:52:08;7.35;;;3.05;;
21999;SDS011;11164;48.818;2.322;2023-07-31T14:54:33;8.27;;;3.38;;